createdAt,value
2023-05-08T00:01:19.779Z,169.53
2023-05-08T00:03:46.367Z,425.69
2023-05-08T00:06:12.936Z,169.53
2023-05-08T00:08:39.503Z,425.69
2023-05-08T00:11:05.972Z,425.69
2023-05-08T00:13:32.358Z,425.69
2023-05-08T00:15:58.825Z,681.84
2023-05-08T00:18:26.551Z,681.84
2023-05-08T00:20:53.353Z,681.84
2023-05-08T00:23:22.095Z,169.53
2023-05-08T00:25:48.533Z,-342.72
2023-05-08T00:28:15.263Z,425.69
2023-05-08T00:30:42.584Z,169.53
2023-05-08T00:33:09.736Z,425.69
2023-05-08T00:35:36.390Z,425.69
2023-05-08T00:38:03.201Z,169.53
2023-05-08T00:40:29.589Z,169.53
2023-05-08T00:42:56.087Z,-86.59
2023-05-08T00:45:23.673Z,-854.91
2023-05-08T00:47:52.136Z,-342.72
2023-05-08T00:50:18.847Z,-854.91
2023-05-08T00:52:46.379Z,-342.72
2023-05-08T00:55:13.009Z,-854.91
2023-05-08T00:57:39.726Z,-1367.03
2023-05-08T01:00:07.541Z,-1110.97
2023-05-08T01:02:35.254Z,-1367.03
2023-05-08T01:05:03.652Z,-1110.97
2023-05-08T01:07:30.192Z,-1110.97
2023-05-08T01:09:56.672Z,-1110.97
2023-05-08T01:12:25.898Z,-1367.03
2023-05-08T01:14:55.272Z,-854.91
2023-05-08T01:17:41.765Z,-1367.03
2023-05-08T01:20:30.125Z,-1110.97
2023-05-08T01:22:59.354Z,-854.91
2023-05-08T01:26:04.259Z,-1367.03
2023-05-08T01:28:52.246Z,-1367.03
2023-05-08T01:31:47.720Z,-854.91
2023-05-08T01:34:23.560Z,-86.59
2023-05-08T01:37:06.801Z,-598.81
2023-05-08T01:39:55.484Z,-1367.03
2023-05-08T01:42:45.793Z,-1110.97
2023-05-08T01:45:32.038Z,-854.91
2023-05-08T01:48:10.797Z,-1110.97
2023-05-08T01:50:46.715Z,-1879.06
2023-05-08T01:53:29.615Z,-1110.97
2023-05-08T01:55:59.998Z,-598.81
2023-05-08T01:58:28.324Z,-1623.06
2023-05-08T02:00:55.150Z,-2135.06
2023-05-08T02:03:23.477Z,-2135.06
2023-05-08T02:05:52.292Z,-1623.06
2023-05-08T02:08:21.250Z,-1367.03
2023-05-08T02:10:51.019Z,-1110.97
2023-05-08T02:13:20.252Z,-1110.97
2023-05-08T02:15:53.428Z,-1110.97
2023-05-08T02:18:22.312Z,-1110.97
2023-05-08T02:20:50.204Z,-1623.06
2023-05-08T02:23:18.500Z,-1879.06
2023-05-08T02:25:47.018Z,-2391.03
2023-05-08T02:28:15.880Z,-2135.06
2023-05-08T02:30:43.786Z,-2391.03
2023-05-08T02:33:12.617Z,-2647.00
2023-05-08T02:35:41.659Z,-2902.97
2023-05-08T02:38:10.834Z,-2647.00
2023-05-08T02:40:46.019Z,-2391.03
2023-05-08T02:43:12.757Z,-2647.00
2023-05-08T02:46:09.317Z,-2135.06
2023-05-08T02:48:47.680Z,-1879.06
2023-05-08T02:51:21.606Z,-1879.06
2023-05-08T02:53:55.211Z,-1879.06
2023-05-08T02:56:32.695Z,-2135.06
2023-05-08T02:59:05.865Z,-2647.00
2023-05-08T03:01:41.980Z,-2902.97
2023-05-08T03:04:10.865Z,-2902.97
2023-05-08T03:06:42.843Z,-2647.00
2023-05-08T03:09:18.649Z,-2647.00
2023-05-08T03:11:48.943Z,-2902.97
2023-05-08T03:14:21.207Z,-2647.00
2023-05-08T03:16:50.492Z,-2902.97
2023-05-08T03:19:26.700Z,-2902.97
2023-05-08T03:21:58.067Z,-2135.06
2023-05-08T03:24:28.070Z,-1879.06
2023-05-08T03:27:00.013Z,-1879.06
2023-05-08T03:29:28.169Z,-2647.00
2023-05-08T03:31:58.544Z,-1623.06
2023-05-08T03:34:25.688Z,-1623.06
2023-05-08T03:36:52.483Z,-598.81
2023-05-08T03:39:19.153Z,-598.81
2023-05-08T03:41:45.929Z,-86.59
2023-05-08T03:44:13.598Z,-598.81
2023-05-08T03:46:42.251Z,-598.81
2023-05-08T03:49:09.754Z,681.84
2023-05-08T03:51:39.968Z,681.84
2023-05-08T03:54:06.530Z,1450.44
2023-05-08T03:56:33.756Z,1962.94
2023-05-08T03:59:38.345Z,1450.44
2023-05-08T04:02:57.208Z,2475.50
2023-05-08T04:05:34.361Z,1962.94
2023-05-08T04:08:15.700Z,2219.22
2023-05-08T04:11:02.624Z,2731.81
2023-05-08T04:13:36.989Z,2988.13
2023-05-08T04:16:20.107Z,1706.69
2023-05-08T04:18:49.602Z,1962.94
2023-05-08T04:21:23.191Z,1962.94
2023-05-08T04:23:52.306Z,1194.22
2023-05-08T04:26:31.133Z,1962.94
2023-05-08T04:29:01.998Z,1962.94
2023-05-08T04:31:30.582Z,1194.22
2023-05-08T04:33:58.087Z,681.84
2023-05-08T04:36:25.479Z,1450.44
2023-05-08T04:38:51.862Z,1450.44
2023-05-08T04:41:18.268Z,1962.94
2023-05-08T04:43:45.873Z,2219.22
2023-05-08T04:46:12.519Z,2219.22
2023-05-08T04:48:40.185Z,2219.22
2023-05-08T04:51:06.650Z,2219.22
2023-05-08T04:53:34.183Z,3244.47
2023-05-08T04:56:00.775Z,3757.19
2023-05-08T04:58:28.941Z,4013.56
2023-05-08T05:00:55.415Z,2988.13
2023-05-08T05:03:21.846Z,2731.81
2023-05-08T05:05:48.551Z,2988.13
2023-05-08T05:08:15.303Z,5295.78
2023-05-08T05:10:41.853Z,5295.78
2023-05-08T05:13:08.331Z,4782.84
2023-05-08T05:15:35.280Z,4526.41
2023-05-08T05:18:02.156Z,4269.97
2023-05-08T05:20:29.385Z,4269.97
2023-05-08T05:22:56.390Z,3500.81
2023-05-08T05:25:23.343Z,3244.47
2023-05-08T05:27:49.776Z,3244.47
2023-05-08T05:30:16.303Z,2475.50
2023-05-08T05:32:43.241Z,1962.94
2023-05-08T05:35:11.492Z,1194.22
2023-05-08T05:37:38.263Z,2219.22
2023-05-08T05:40:07.510Z,2731.81
2023-05-08T05:42:34.010Z,3500.81
2023-05-08T05:45:02.058Z,3500.81
2023-05-08T05:47:28.658Z,6065.31
2023-05-08T05:49:55.858Z,5552.28
2023-05-08T05:52:22.964Z,6834.97
2023-05-08T05:54:49.582Z,8374.81
2023-05-08T05:57:16.531Z,9401.69
2023-05-08T05:59:43.624Z,10428.84
2023-05-08T06:02:14.283Z,11970.09
2023-05-08T06:04:40.740Z,14540.19
2023-05-08T06:07:14.662Z,16597.50
2023-05-08T06:09:41.162Z,16597.50
2023-05-08T06:12:08.280Z,18141.22
2023-05-08T06:14:34.820Z,18141.22
2023-05-08T06:17:01.342Z,19685.50
2023-05-08T06:19:32.896Z,20972.91
2023-05-08T06:21:59.529Z,21745.56
2023-05-08T06:24:28.137Z,19685.50
2023-05-08T06:26:54.530Z,21488.00
2023-05-08T06:29:22.974Z,22518.34
2023-05-08T06:31:49.403Z,25325.03
2023-05-08T06:34:16.056Z,25224.34
2023-05-08T06:36:48.251Z,22518.34
2023-05-08T06:39:14.693Z,21745.56
2023-05-08T06:41:41.343Z,20972.91
2023-05-08T06:44:09.929Z,19685.50
2023-05-08T06:46:36.365Z,23806.69
2023-05-08T06:49:02.952Z,20457.91
2023-05-08T06:51:35.659Z,22003.13
2023-05-08T06:54:02.154Z,21488.00
2023-05-08T06:56:29.540Z,20715.41
2023-05-08T06:59:05.062Z,22775.97
2023-05-08T07:01:34.862Z,19428.09
2023-05-08T07:04:02.339Z,20715.41
2023-05-08T07:06:28.934Z,19942.97
2023-05-08T07:08:55.658Z,21230.44
2023-05-08T07:11:22.151Z,18913.28
2023-05-08T07:13:48.656Z,18655.91
2023-05-08T07:16:17.543Z,21230.44
2023-05-08T07:18:44.299Z,17112.00
2023-05-08T07:21:11.914Z,16597.50
2023-05-08T07:23:38.353Z,17112.00
2023-05-08T07:26:04.878Z,16854.75
2023-05-08T07:28:31.915Z,12997.94
2023-05-08T07:31:07.265Z,16340.28
2023-05-08T07:33:34.622Z,16083.06
2023-05-08T07:36:08.281Z,14026.03
2023-05-08T07:38:39.739Z,14026.03
2023-05-08T07:41:06.964Z,13254.94
2023-05-08T07:43:45.065Z,12227.03
2023-05-08T07:46:20.491Z,15568.72
2023-05-08T07:48:47.548Z,14026.03
2023-05-08T07:51:14.681Z,16083.06
2023-05-08T07:53:48.714Z,14797.31
2023-05-08T07:56:15.180Z,14797.31
2023-05-08T07:58:43.060Z,14797.31
2023-05-08T08:01:10.511Z,11713.16
2023-05-08T08:03:37.027Z,15825.88
2023-05-08T08:06:03.696Z,15054.41
2023-05-08T08:08:32.163Z,13511.94
2023-05-08T08:10:58.551Z,16340.28
2023-05-08T08:13:25.103Z,16083.06
2023-05-08T08:15:52.069Z,19428.09
2023-05-08T08:18:18.565Z,20457.91
2023-05-08T08:20:47.298Z,21230.44
2023-05-08T08:23:13.915Z,15825.88
2023-05-08T08:25:40.477Z,13768.97
2023-05-08T08:28:07.335Z,14026.03
2023-05-08T08:30:33.756Z,17626.56
2023-05-08T08:33:02.277Z,15568.72
2023-05-08T08:35:30.212Z,17626.56
2023-05-08T08:37:57.122Z,14540.19
2023-05-08T08:40:24.817Z,14540.19
2023-05-08T08:42:51.311Z,16083.06
2023-05-08T08:45:17.732Z,14283.09
2023-05-08T08:47:45.203Z,11456.28
2023-05-08T08:50:14.696Z,10942.53
2023-05-08T08:52:55.709Z,12483.97
2023-05-08T08:55:25.190Z,15825.88
2023-05-08T08:58:19.650Z,15054.41
2023-05-08T09:00:47.724Z,17626.56
2023-05-08T09:03:21.606Z,15825.88
2023-05-08T09:05:49.356Z,13254.94
2023-05-08T09:08:18.681Z,13254.94
2023-05-08T09:10:52.481Z,11456.28
2023-05-08T09:13:19.880Z,12227.03
2023-05-08T09:15:47.386Z,12483.97
2023-05-08T09:18:13.869Z,14797.31
2023-05-08T09:20:44.383Z,16083.06
2023-05-08T09:23:17.226Z,12997.94
2023-05-08T09:25:47.237Z,14540.19
2023-05-08T09:28:21.805Z,12740.94
2023-05-08T09:30:56.561Z,14283.09
2023-05-08T09:33:28.394Z,12483.97
2023-05-08T09:35:56.270Z,13511.94
2023-05-08T09:38:39.898Z,14026.03
2023-05-08T09:41:16.400Z,17626.56
2023-05-08T09:43:44.720Z,16340.28
2023-05-08T09:46:24.307Z,14283.09
2023-05-08T09:48:54.509Z,14540.19
2023-05-08T09:51:22.196Z,14283.09
2023-05-08T09:53:55.573Z,17112.00
2023-05-08T09:56:39.273Z,16854.75
2023-05-08T09:59:27.950Z,22071.56
2023-05-08T10:01:56.002Z,22321.09
2023-05-08T10:04:36.394Z,22627.03
2023-05-08T10:07:04.056Z,23772.44
2023-05-08T10:09:49.844Z,22884.66
2023-05-08T10:12:17.010Z,20401.56
2023-05-08T10:14:46.206Z,22516.34
2023-05-08T10:17:19.897Z,22538.47
2023-05-08T10:19:49.696Z,24076.47
2023-05-08T10:22:18.375Z,24920.22
2023-05-08T10:24:49.866Z,24547.66
2023-05-08T10:27:35.379Z,24322.13
2023-05-08T10:30:04.251Z,23810.69
2023-05-08T10:32:43.439Z,23855.00
2023-05-08T10:35:11.990Z,21638.91
2023-05-08T10:37:42.259Z,23778.50
2023-05-08T10:40:09.915Z,23400.00
2023-05-08T10:42:36.564Z,24914.19
2023-05-08T10:45:05.547Z,24467.13
2023-05-08T10:47:50.623Z,23985.88
2023-05-08T10:50:35.100Z,24438.91
2023-05-08T10:53:20.628Z,24557.72
2023-05-08T10:55:50.936Z,24245.63
2023-05-08T10:58:23.253Z,22870.59
2023-05-08T11:00:49.670Z,23295.31
2023-05-08T11:03:42.245Z,22858.50
2023-05-08T11:06:09.370Z,22788.06
2023-05-08T11:08:43.460Z,19158.63
2023-05-08T11:11:26.520Z,16597.50
2023-05-08T11:14:09.383Z,18655.91
2023-05-08T11:16:54.477Z,21838.13
2023-05-08T11:19:23.910Z,22534.44
2023-05-08T11:22:15.351Z,24308.03
2023-05-08T11:25:14.155Z,25828.59
2023-05-08T11:28:06.714Z,24859.81
2023-05-08T11:30:33.135Z,26650.56
2023-05-08T11:33:04.908Z,26948.75
2023-05-08T11:35:50.922Z,26477.28
2023-05-08T11:38:22.974Z,25963.56
2023-05-08T11:40:55.569Z,27027.34
2023-05-08T11:43:34.213Z,26686.81
2023-05-08T11:46:03.019Z,27041.47
2023-05-08T11:48:31.866Z,27916.06
2023-05-08T11:50:59.799Z,27553.31
2023-05-08T11:53:26.471Z,27367.91
2023-05-08T11:55:53.637Z,27633.91
2023-05-08T11:58:20.147Z,27766.94
2023-05-08T12:00:49.112Z,27456.56
2023-05-08T12:03:20.943Z,27589.59
2023-05-08T12:05:49.161Z,27369.91
2023-05-08T12:08:17.066Z,27635.94
2023-05-08T12:10:46.974Z,27726.63
2023-05-08T12:13:24.717Z,27650.03
2023-05-08T12:16:00.987Z,27811.28
2023-05-08T12:18:29.276Z,27198.63
2023-05-08T12:21:00.562Z,25860.84
2023-05-08T12:23:32.028Z,24297.97
2023-05-08T12:26:00.738Z,22377.47
2023-05-08T12:28:28.357Z,21995.09
2023-05-08T12:30:57.282Z,21661.03
2023-05-08T12:33:24.505Z,21431.66
2023-05-08T12:35:51.152Z,21325.00
2023-05-08T12:38:17.626Z,20620.84
2023-05-08T12:40:47.643Z,22598.84
2023-05-08T12:43:14.127Z,24056.34
2023-05-08T12:45:42.865Z,23784.53
2023-05-08T12:48:12.214Z,24306.03
2023-05-08T12:50:43.819Z,22973.25
2023-05-08T12:53:18.022Z,23677.81
2023-05-08T12:55:52.824Z,24789.31
2023-05-08T12:58:20.849Z,24638.28
2023-05-08T13:00:51.971Z,24525.50
2023-05-08T13:03:27.699Z,24640.28
2023-05-08T13:06:00.405Z,25723.84
2023-05-08T13:08:35.239Z,25864.88
2023-05-08T13:11:04.680Z,25695.66
2023-05-08T13:13:34.871Z,25673.50
2023-05-08T13:16:07.957Z,25433.81
2023-05-08T13:18:36.873Z,25041.06
2023-05-08T13:21:03.762Z,25651.34
2023-05-08T13:23:30.348Z,26259.72
2023-05-08T13:25:57.080Z,26715.03
2023-05-08T13:28:23.915Z,26352.38
2023-05-08T13:30:50.503Z,26682.81
2023-05-08T13:33:17.194Z,26680.78
2023-05-08T13:35:43.749Z,26860.09
2023-05-08T13:38:12.428Z,26549.81
2023-05-08T13:40:38.920Z,26880.25
2023-05-08T13:43:05.655Z,26652.56
2023-05-08T13:45:33.044Z,26727.13
2023-05-08T13:47:59.822Z,26920.56
2023-05-08T13:50:34.562Z,27192.59
2023-05-08T13:53:01.261Z,28391.75
2023-05-08T13:55:27.711Z,29528.78
2023-05-08T13:57:57.884Z,31222.84
2023-05-08T14:00:28.057Z,31787.69
2023-05-08T14:02:54.849Z,31039.28
2023-05-08T14:05:21.562Z,30464.47
2023-05-08T14:07:48.312Z,30900.09
2023-05-08T14:10:17.041Z,30198.25
2023-05-08T14:12:43.797Z,29486.44
2023-05-08T14:15:12.230Z,30218.41
2023-05-08T14:17:38.998Z,31119.97
2023-05-08T14:20:07.587Z,32723.91
2023-05-08T14:22:34.706Z,33089.16
2023-05-08T14:25:01.135Z,32649.25
2023-05-08T14:27:30.673Z,33244.56
2023-05-08T14:29:57.930Z,32126.63
2023-05-08T14:32:24.462Z,32041.91
2023-05-08T14:34:56.851Z,31291.44
2023-05-08T14:37:24.347Z,30113.56
2023-05-08T14:39:59.295Z,28871.53
2023-05-08T14:42:25.788Z,28218.41
2023-05-08T14:44:52.238Z,27069.66
2023-05-08T14:47:21.018Z,26366.47
2023-05-08T14:49:47.398Z,25772.19
2023-05-08T14:52:14.434Z,25631.19
2023-05-08T14:54:42.196Z,24676.53
2023-05-08T14:57:10.775Z,19609.09
2023-05-08T15:02:33.823Z,8118.13
2023-05-08T15:05:01.513Z,13768.97
2023-05-08T15:07:29.635Z,4782.84
2023-05-08T15:09:57.102Z,4013.56
2023-05-08T15:12:23.645Z,17626.56
2023-05-08T15:14:50.289Z,20492.09
2023-05-08T15:17:19.068Z,25772.19
2023-05-08T15:19:46.052Z,27130.13
2023-05-08T15:22:13.388Z,27847.53
2023-05-08T15:24:40.120Z,28020.88
2023-05-08T15:27:06.711Z,30351.53
2023-05-08T15:29:34.308Z,29230.38
2023-05-08T15:32:00.689Z,28851.38
2023-05-08T15:34:32.340Z,28577.19
2023-05-08T15:36:59.201Z,28948.13
2023-05-08T15:39:25.634Z,28226.47
2023-05-08T15:41:58.144Z,28286.94
2023-05-08T15:44:28.787Z,27742.75
2023-05-08T15:47:00.669Z,27208.72
2023-05-08T15:49:27.323Z,27875.75
2023-05-08T15:51:55.157Z,28028.94
2023-05-08T15:54:22.188Z,28006.78
2023-05-08T15:56:48.940Z,28295.00
2023-05-08T15:59:21.539Z,28153.91
2023-05-08T16:01:48.091Z,28726.38
2023-05-08T16:04:16.650Z,29282.81
2023-05-08T16:06:43.253Z,29746.53
2023-05-08T16:09:09.659Z,30359.59
2023-05-08T16:11:36.159Z,30855.72
2023-05-08T16:14:11.794Z,31989.44
2023-05-08T16:16:39.684Z,32037.88
2023-05-08T16:19:06.201Z,31694.88
2023-05-08T16:21:34.915Z,31126.00
2023-05-08T16:24:01.645Z,30980.78
2023-05-08T16:26:28.297Z,30658.06
2023-05-08T16:28:54.679Z,30448.31
2023-05-08T16:31:23.179Z,29728.41
2023-05-08T16:33:49.619Z,29042.88
2023-05-08T16:36:16.157Z,28879.59
2023-05-08T16:38:42.787Z,28962.25
2023-05-08T16:41:10.181Z,28540.91
2023-05-08T16:43:36.871Z,28216.38
2023-05-08T16:46:07.288Z,27916.06
2023-05-08T16:48:34.017Z,27722.59
2023-05-08T16:51:00.504Z,26872.19
2023-05-08T16:53:27.312Z,27021.31
2023-05-08T16:55:54.091Z,26592.13
2023-05-08T16:58:21.517Z,25959.53
2023-05-08T17:00:54.939Z,24716.81
2023-05-08T17:03:21.483Z,24008.00
2023-05-08T17:05:47.974Z,23595.28
2023-05-08T17:08:15.689Z,22902.78
2023-05-08T17:10:42.180Z,22570.69
2023-05-08T17:13:08.789Z,22341.22
2023-05-08T17:15:35.376Z,22474.06
2023-05-08T17:18:01.925Z,21900.50
2023-05-08T17:20:28.509Z,21661.03
2023-05-08T17:22:56.093Z,21693.22
2023-05-08T17:25:22.698Z,21904.53
2023-05-08T17:27:49.227Z,20449.84
2023-05-08T17:30:16.973Z,20345.25
2023-05-08T17:32:54.075Z,20538.38
2023-05-08T17:35:20.629Z,20936.69
2023-05-08T17:37:47.381Z,21467.88
2023-05-08T17:40:14.145Z,22510.28
2023-05-08T17:42:40.666Z,23331.56
2023-05-08T17:45:07.687Z,24726.88
2023-05-08T17:47:34.055Z,24366.44
2023-05-08T17:50:02.543Z,24330.19
2023-05-08T17:52:30.169Z,24479.19
2023-05-08T17:54:56.727Z,23999.97
2023-05-08T17:57:25.238Z,23879.16
2023-05-08T17:59:51.673Z,22894.75
2023-05-08T18:02:18.135Z,23977.81
2023-05-08T18:04:44.598Z,23019.53
2023-05-08T18:07:11.311Z,22924.94
2023-05-08T18:09:40.828Z,22780.00
2023-05-08T18:12:07.510Z,23422.16
2023-05-08T18:14:34.266Z,21991.06
2023-05-08T18:17:00.888Z,17964.28
2023-05-08T18:19:32.808Z,19721.72
2023-05-08T18:22:01.307Z,17164.25
2023-05-08T18:24:29.161Z,18386.47
2023-05-08T18:26:57.728Z,18965.56
2023-05-08T18:29:25.693Z,16623.63
2023-05-08T18:31:52.251Z,16340.28
2023-05-08T18:34:18.778Z,13254.94
2023-05-08T18:36:46.548Z,8118.13
2023-05-08T18:39:14.138Z,8631.50
2023-05-08T18:41:40.623Z,8118.13
2023-05-08T18:44:07.600Z,8118.13
2023-05-08T18:46:34.438Z,8118.13
2023-05-08T18:49:00.892Z,7348.19
2023-05-08T18:51:27.462Z,8888.22
2023-05-08T18:53:54.106Z,8631.50
2023-05-08T18:56:21.164Z,7861.47
2023-05-08T18:58:50.705Z,6834.97
2023-05-08T19:01:20.043Z,7091.56
2023-05-08T19:03:48.187Z,7348.19
2023-05-08T19:06:22.144Z,7861.47
2023-05-08T19:08:48.598Z,6578.41
2023-05-08T19:11:15.251Z,7091.56
2023-05-08T19:13:43.954Z,6834.97
2023-05-08T19:16:10.589Z,6065.31
2023-05-08T19:18:37.089Z,2219.22
2023-05-08T19:21:03.651Z,4269.97
2023-05-08T19:23:30.157Z,5808.78
2023-05-08T19:25:56.660Z,4269.97
2023-05-08T19:28:23.201Z,-1879.06
2023-05-08T19:30:49.743Z,-5461.50
2023-05-08T19:33:20.730Z,-7762.72
2023-05-08T19:35:49.445Z,-9551.59
2023-05-08T19:38:15.999Z,-10318.00
2023-05-08T19:40:55.366Z,-11084.25
2023-05-08T19:43:28.105Z,-11850.38
2023-05-08T19:45:55.644Z,-11850.38
2023-05-08T19:48:22.501Z,-11850.38
2023-05-08T19:50:49.207Z,-11850.38
2023-05-08T19:53:15.738Z,-12105.69
2023-05-08T19:55:42.170Z,-12107.19
2023-05-08T19:58:08.712Z,-12107.19
2023-05-08T20:00:35.460Z,-12107.19
2023-05-08T20:03:02.035Z,-12107.19
2023-05-08T20:05:28.637Z,-12107.19
2023-05-08T20:07:55.090Z,-12107.19
2023-05-08T20:10:21.778Z,-12107.19
2023-05-08T20:12:48.377Z,-12107.19
2023-05-08T20:15:15.287Z,-12107.19
2023-05-08T20:17:41.920Z,-12107.19
2023-05-08T20:20:09.137Z,-12107.19
2023-05-08T20:22:35.725Z,-12107.19
2023-05-08T20:25:04.473Z,-12107.19
2023-05-08T20:27:31.342Z,-12107.19
2023-05-08T20:29:57.961Z,-12107.19
2023-05-08T20:32:24.544Z,-12107.19
2023-05-08T20:34:51.061Z,-12107.19
2023-05-08T20:37:17.563Z,-12107.19
2023-05-08T20:39:45.038Z,-12105.69
2023-05-08T20:42:11.543Z,-12105.69
2023-05-08T20:44:38.117Z,-12105.69
2023-05-08T20:47:04.685Z,-12105.69
2023-05-08T20:49:31.571Z,-12105.69
2023-05-08T20:51:58.011Z,-12105.69
2023-05-08T20:54:24.481Z,-12105.69
2023-05-08T20:56:51.121Z,-12105.69
2023-05-08T20:59:18.762Z,-12105.69
2023-05-08T21:01:46.574Z,-12105.69
2023-05-08T21:04:13.212Z,-12105.69
2023-05-08T21:06:39.940Z,-12105.69
2023-05-08T21:09:07.156Z,-11850.38
2023-05-08T21:11:33.881Z,-11850.38
2023-05-08T21:14:00.314Z,-11850.38
2023-05-08T21:16:27.157Z,-11850.38
2023-05-08T21:18:57.403Z,-12105.69
2023-05-08T21:21:24.715Z,-12105.69
2023-05-08T21:23:51.168Z,-12105.69
2023-05-08T21:26:19.793Z,-12105.69
2023-05-08T21:28:47.186Z,-11850.38
2023-05-08T21:31:13.646Z,-11850.38
2023-05-08T21:33:40.304Z,-11850.38
2023-05-08T21:36:06.980Z,-12105.69
2023-05-08T21:38:34.186Z,-12105.69
2023-05-08T21:41:08.370Z,-12105.69
2023-05-08T21:43:38.719Z,-11850.38
2023-05-08T21:46:07.321Z,-12105.69
2023-05-08T21:48:34.123Z,-11850.38
2023-05-08T21:51:01.576Z,-11850.38
2023-05-08T21:53:28.086Z,-11850.38
2023-05-08T21:55:54.671Z,-11595.00
2023-05-08T21:58:22.316Z,-11850.38
2023-05-08T22:00:48.915Z,-12105.69
2023-05-08T22:03:15.761Z,-12105.69
2023-05-08T22:05:42.411Z,-12105.69
2023-05-08T22:08:09.003Z,-12105.69
2023-05-08T22:10:35.714Z,-12107.19
2023-05-08T22:13:02.963Z,-12105.69
2023-05-08T22:15:30.646Z,-12107.19
2023-05-08T22:18:00.253Z,-12105.69
2023-05-08T22:20:26.831Z,-12107.19
2023-05-08T22:22:53.410Z,-12107.19
2023-05-08T22:25:21.953Z,-12107.19
2023-05-08T22:27:48.684Z,-12107.19
2023-05-08T22:30:15.226Z,-12107.19
2023-05-08T22:32:42.637Z,-12107.19
2023-05-08T22:35:09.304Z,-12105.69
2023-05-08T22:37:36.794Z,-12105.69
2023-05-08T22:40:03.461Z,-12105.69
2023-05-08T22:42:29.991Z,-12105.69
2023-05-08T22:44:56.928Z,-12107.19
2023-05-08T22:47:23.483Z,-12107.19
2023-05-08T22:49:50.376Z,-12107.19
2023-05-08T22:52:17.056Z,-12107.19
2023-05-08T22:54:43.417Z,-12107.19
2023-05-08T22:57:09.831Z,-12107.19
2023-05-08T22:59:36.585Z,-12107.19
2023-05-08T23:02:03.114Z,-12105.69
2023-05-08T23:04:29.553Z,-12105.69
2023-05-08T23:06:56.000Z,-11850.38
2023-05-08T23:09:22.958Z,-11850.38
2023-05-08T23:11:51.378Z,-11850.38
2023-05-08T23:14:17.864Z,-12105.69
2023-05-08T23:16:44.440Z,-12105.69
2023-05-08T23:19:11.026Z,-12105.69
2023-05-08T23:21:37.570Z,-12105.69
2023-05-08T23:24:04.998Z,-11850.38
2023-05-08T23:26:31.543Z,-11595.00
2023-05-08T23:28:58.109Z,-11595.00
2023-05-08T23:31:25.691Z,-11850.38
2023-05-08T23:33:52.227Z,-11850.38
2023-05-08T23:36:18.741Z,-12105.69
2023-05-08T23:38:45.215Z,-12107.19
2023-05-08T23:41:12.346Z,-12107.19
2023-05-08T23:43:39.150Z,-12107.19
2023-05-08T23:46:06.527Z,-12107.19
2023-05-08T23:48:33.190Z,-12107.19
2023-05-08T23:50:59.579Z,-12107.19
2023-05-08T23:53:26.303Z,-12107.19
2023-05-08T23:55:53.124Z,-12107.19
2023-05-08T23:58:19.666Z,-12107.19
